Aérodrome :
LOGIN :

S'inscrire | Disclaimer

   EN    FR    IT 

 










Légende :    VFR   VFR Marginal   IFR   IFR Intensif   IFR Très Intensif
Visi : 
Plafond : 
>= 8 km
>= 3000ft
5 à 8 km
1000 à 3000 ft
1500m à 5 km
500 à 1000 ft
800 à 1500m
200 à 500 ft
< 800m
< 200 ft
Symboles :   Orages  Brouillard  Fortes neiges  Fortes précipitations  Vent > 20 kt
SIGMETs :   Divers  Orages  Givrage  Turbulence  Onde Orograph.  Cendres Volcan.







- Altitude de l'aérodrome : 17 ft
- Code IATA : MPL
- Voir les cartes d'approche


LFMT - Montpellier Méditerranée

DERNIER METAR :
  • 280700Z AUTO 29008KT 270V340 CAVOK 22/15 Q1004 NOSIG

METARs EXPIRÉS :
  • 280630Z AUTO 30006KT 270V330 CAVOK 21/16 Q1004 NOSIG
  • 280600Z AUTO 30003KT 270V330 CAVOK 20/16 Q1005 NOSIG
  • 280530Z AUTO 32003KT 280V340 CAVOK 19/16 Q1005 NOSIG
  • 280500Z AUTO 32004KT CAVOK 18/15 Q1005 NOSIG
  • 280430Z AUTO VRB03KT 9999 FEW001 18/15 Q1005 NOSIG

TAF TAF LFMT
Valide du 28 à 03h jusqu'au 29 à 03h UTC


280200Z 2803/2903 28012KT CAVOK
BECMG 2809/2811 SCT030TCU
TEMPO 2811/2818 30020G40KT 4000 SHRA BR BKN030TCU
ATIS : +33 4 67 13 11 70
Pas de NOTAMs connus pour ce terrain.
3 SIGMETs publiés pour la FIR Marseille (LFMM) :
 
Orages noyés dans la masse
LFMM SIGMET 6 VALID 280700/280900 LFPW
LFMM MARSEILLE FIR/UIR EMBD TS FCST WI N4230 E00945 - N4115 E00945 - N4115 E00845 TOP FL380 MOV NE 30KT NC=
Orages noyés dans la masse
LFMM SIGMET 5 VALID 280640/280900 LFPW
LFMM MARSEILLE FIR/UIR EMBD TS OBS AT 0640Z WI N4130 E00430 - N4200 E00430 - N4200 E00400 - N4245 E00400 - N4245 E00445 - N4130 E00445 TOP FL340 MOV NE 30KT NC=
Orages noyés dans la masse
LFMM SIGMET 4 VALID 280540/280700 LFPW
LFMM MARSEILLE FIR/UIR EMBD TS OBS AT 0540Z WI N4245 E00945 - N4115 E00945 - N4115 E00800 - N4015 E00800 - N4015 E00715 - N4145 E00745 TOP FL370 MOV NE 30KT NC=



MET'MAP, la Météo Aéronautique d'un coup d'oeil ! - Copyright ORBIFLY Décembre 2007 - Disclaimer

ORBIFLY MET'MAP TEAM :

Programmation & Développement : Alexandra Zaïnal
Conception & Développement : Baudouin d'Aumeries
Co-Programmation & Développement : Marc-Olivier Méhu
Soutien technique & logistique : Manuel Goepfert

Contact : metmap@orbifly.com




SOURCES & CREDITS :

   NOAA